Flight Track Log - Related Links

Times and Time Zones

All times are in EDT time to prevent confusion due to time zone crossing. See the N516QS flight status page for this flight to view local times or setup timezone preferences in your user account.

Time Position Orientation Groundspeed Altitude Reporting Facility
EDT Latitude Longitude Course Direction KTS MPH feet Rate Location/Type
Thu 04:03:44 PM 35.5219 -82.5817 294° West 254 292 7,000  Level Atlanta Center
Thu 04:04:44 PM 35.5500 -82.6603 294° West 256 295 10,000 1,750 Climbing Atlanta Center
Thu 04:05:44 PM 35.5239 -82.7656 253° West 264 304 10,500 2,200 Climbing Atlanta Center
Thu 04:06:44 PM 35.5000 -82.8858 256° West 313 360 14,400 3,550 Climbing Atlanta Center
Thu 04:07:44 PM 35.4719 -83.0008 253° West 352 405 17,600 3,050 Climbing Atlanta Center
Thu 04:08:44 PM 35.4436 -83.1236 254° West 369 425 20,500 2,650 Climbing Atlanta Center
Thu 04:09:44 PM 35.4172 -83.2411 255° West 388 447 22,900 2,650 Climbing Atlanta Center
Thu 04:10:44 PM 35.3869 -83.3764 255° West 400 460 25,800 2,650 Climbing Atlanta Center
Thu 04:11:44 PM 35.3542 -83.5167 254° West 416 479 28,200 2,300 Climbing Atlanta Center
Thu 04:12:44 PM 35.3192 -83.6594 253° West 433 498 30,400 2,150 Climbing Atlanta Center
Thu 04:13:44 PM 35.2861 -83.8072 255° West 439 505 32,500 1,800 Climbing Atlanta Center
Thu 04:14:44 PM 35.2531 -83.9497 254° West 445 512 34,000 950 Climbing Atlanta Center
Thu 04:15:44 PM 35.2175 -84.0947 253° West 439 505 34,400 1,200 Climbing Atlanta Center
Thu 04:16:44 PM 35.1819 -84.2344 253° West 439 505 36,400 1,800 Climbing Atlanta Center
Thu 04:17:44 PM 35.1483 -84.3767 254° West 439 505 38,000 1,850 Climbing Atlanta Center
Thu 04:18:44 PM 35.1144 -84.5211 254° West 439 505 40,100 2,100 Climbing Atlanta Center
Thu 04:19:44 PM 35.0825 -84.6581 254° West 432 497 42,200 1,450 Climbing Atlanta Center
Thu 04:20:44 PM 35.0461 -84.8025 253° West 421 484 43,000 400 Climbing Atlanta Center
Thu 04:21:44 PM 35.0139 -84.9364 254° West 416 479 43,000  Level Atlanta Center
Thu 04:22:44 PM 34.9817 -85.0656 253° West 416 479 43,000  Level Atlanta Center
Thu 04:23:44 PM 34.9597 -85.1994 259° West 411 473 43,000  Level Atlanta Center
Thu 04:24:44 PM 34.9644 -85.3389 272° West 406 467 43,000  Level Atlanta Center
Thu 04:25:44 PM 34.9672 -85.4783 271° West 411 473 43,000  Level Atlanta Center
Thu 04:26:44 PM 34.9717 -85.6153 272° West 411 473 43,000  Level Atlanta Center
Thu 04:27:44 PM 34.9781 -85.7550 273° West 411 473 43,000  Level Atlanta Center
Thu 04:28:44 PM 34.9803 -85.8944 271° West 416 479 43,000  Level Atlanta Center
Thu 04:29:44 PM 34.9864 -86.0364 273° West 421 484 43,000  Level Atlanta Center
Thu 04:30:44 PM 34.9903 -86.1736 272° West 421 484 43,000  Level Atlanta Center
Thu 04:31:44 PM 34.9919 -86.3131 271° West 421 484 43,000  Level Atlanta Center
Thu 04:32:44 PM 34.9978 -86.4550 273° West 421 484 43,000  Level Atlanta Center
Thu 04:33:08 PM 34.9953 -86.5017 266° West 420 483 43,000  Level Memphis Center
Thu 04:34:08 PM 34.9997 -86.6408 272° West 425 489 43,000  Level Memphis Center
Thu 04:35:08 PM 35.0017 -86.7853 271° West 420 483 43,000  Level Memphis Center
Thu 04:36:08 PM 35.0017 -86.9322 270° West 429 494 43,000  Level Memphis Center
Thu 04:37:08 PM 35.0033 -87.0717 271° West 429 494 43,000  Level Memphis Center
Thu 04:38:08 PM 35.0069 -87.2108 272° West 419 482 43,000  Level Memphis Center
Thu 04:39:08 PM 35.0083 -87.3503 271° West 419 482 43,000  Level Memphis Center
Thu 04:40:08 PM 35.0097 -87.4947 271° West 424 488 43,000  Level Memphis Center
Thu 04:41:08 PM 35.0131 -87.6492 272° West 418 481 43,000  Level Memphis Center
Thu 04:42:08 PM 35.0122 -87.7939 270° West 418 481 43,000  Level Memphis Center
Thu 04:43:08 PM 35.0125 -87.9156 270° West 412 474 43,000  Level Memphis Center
Thu 04:44:08 PM 35.0172 -88.0600 272° West 418 481 43,000  Level Memphis Center
Thu 04:45:08 PM 35.0178 -88.2094 270° West 431 496 43,000  Level Memphis Center
Thu 04:46:08 PM 35.0181 -88.3514 270° West 436 502 43,000  Level Memphis Center
Thu 04:47:08 PM 35.0206 -88.5036 271° West 436 502 43,000  Level Memphis Center
Thu 04:48:08 PM 35.0206 -88.6506 270° West 421 484 43,000  Level Memphis Center
Thu 04:49:08 PM 35.0203 -88.7925 270° West 421 484 43,000  Level Memphis Center
Thu 04:50:08 PM 35.0178 -88.9347 269° West 421 484 43,000  Level Memphis Center
Thu 04:51:08 PM 35.0194 -89.0817 271° West 421 484 43,000  Level Memphis Center
Thu 04:52:08 PM 35.0208 -89.2236 271° West 426 490 43,000  Level Memphis Center
Thu 04:53:08 PM 35.0200 -89.3708 270° West 426 490 43,000  Level Memphis Center
Thu 04:54:08 PM 35.0211 -89.5128 271° West 426 490 43,000  Level Memphis Center
Thu 04:55:08 PM 35.0242 -89.6622 271° West 426 490 43,000  Level Memphis Center
Thu 04:56:08 PM 35.0250 -89.8144 270° West 442 509 43,000  Level Memphis Center
Thu 04:57:08 PM 35.0214 -89.9642 268° West 448 516 43,000  Level Memphis Center
Thu 04:58:08 PM 35.0322 -90.1086 275° West 436 502 43,000  Level Memphis Center
Thu 04:59:08 PM 35.0447 -90.2531 276° West 441 507 43,000  Level Memphis Center
Thu 05:00:08 PM 35.0594 -90.3953 277° West 436 502 43,000  Level Memphis Center
Thu 05:01:08 PM 35.0739 -90.5397 277° West 436 502 43,000  Level Memphis Center
Thu 05:02:08 PM 35.0883 -90.6844 277° West 431 496 43,000  Level Memphis Center
Thu 05:03:08 PM 35.1025 -90.8114 278° West 431 496 43,000  Level Memphis Center
Thu 05:04:08 PM 35.1144 -90.9561 276° West 426 490 43,000  Level Memphis Center
Thu 05:05:08 PM 35.1283 -91.0983 277° West 426 490 43,000  Level Memphis Center
Thu 05:06:08 PM 35.1419 -91.2408 277° West 426 490 43,000  Level Memphis Center
Thu 05:07:08 PM 35.1553 -91.3958 276° West 426 490 43,000  Level Memphis Center
Thu 05:08:08 PM 35.1686 -91.5433 276° West 426 490 43,000  Level Memphis Center
Thu 05:09:08 PM 35.1819 -91.6883 276° West 431 496 43,000  Level Memphis Center
Thu 05:10:08 PM 35.1947 -91.8383 276° West 437 503 43,000  Level Memphis Center
Thu 05:11:08 PM 35.1908 -91.9833 268° West 437 503 43,000  Level Memphis Center
Thu 05:12:08 PM 35.1825 -92.1328 266° West 437 503 43,000  Level Memphis Center
Thu 05:13:08 PM 35.1742 -92.2800 266° West 437 503 43,000  Level Memphis Center
Thu 05:14:08 PM 35.1800 -92.4275 273° West 437 503 43,000  Level Memphis Center
Thu 05:15:08 PM 35.1881 -92.5778 274° West 437 503 43,000  Level Memphis Center
Thu 05:16:08 PM 35.2000 -92.7178 276° West 452 520 43,000  Level Memphis Center
Thu 05:17:08 PM 35.2056 -92.8603 273° West 451 519 43,000  Level Memphis Center
Thu 05:18:08 PM 35.2147 -93.0231 274° West 439 505 43,000  Level Memphis Center
Thu 05:19:08 PM 35.2181 -93.1503 272° West 434 499 43,000  Level Memphis Center
Thu 05:20:08 PM 35.2289 -93.3211 274° West 440 506 43,000  Level Memphis Center
Thu 05:21:08 PM 35.2336 -93.4661 272° West 440 506 43,000  Level Memphis Center
Thu 05:22:08 PM 35.2389 -93.5831 273° West 440 506 43,000  Level Memphis Center
Thu 05:23:08 PM 35.2453 -93.7436 273° West 440 506 43,000  Level Memphis Center
Thu 05:24:08 PM 35.2494 -93.8911 272° West 440 506 43,000  Level Memphis Center
Thu 05:25:08 PM 35.2597 -94.0392 275° West 440 506 43,000  Level Memphis Center
Thu 05:26:08 PM 35.2658 -94.1844 273° West 440 506 43,000  Level Memphis Center
Thu 05:27:58 PM 35.2758 -94.4739 273° West 467 537 43,000  Level Fort Worth Center
Thu 05:28:59 PM 35.2814 -94.6239 273° West 465 535 43,000  Level Fort Worth Center
Thu 05:29:58 PM 35.2886 -94.7608 274° West 443 510 43,000  Level Fort Worth Center
Thu 05:30:58 PM 35.2936 -94.9108 272° West 443 510 43,000  Level Fort Worth Center
Thu 05:31:59 PM 35.2986 -95.0556 272° West 438 504 43,000  Level Fort Worth Center
Thu 05:32:58 PM 35.3033 -95.2031 272° West 438 504 43,000  Level Fort Worth Center
Thu 05:33:58 PM 35.3081 -95.3556 272° West 443 510 43,000 -50 Level Fort Worth Center
Thu 05:34:59 PM 35.3125 -95.5031 272° West 443 510 42,900  Descending Fort Worth Center
Thu 05:35:58 PM 35.3189 -95.6531 273° West 438 504 43,000 50 Climbing Fort Worth Center
Thu 05:36:58 PM 35.3228 -95.8006 272° West 443 510 43,000  Level Fort Worth Center
Thu 05:37:58 PM 35.3247 -95.9481 271° West 438 504 43,000  Level Fort Worth Center
Thu 05:38:58 PM 35.3286 -96.1006 272° West 438 504 43,000  Level Fort Worth Center
Thu 05:39:58 PM 35.3319 -96.2481 272° West 438 504 43,000  Level Fort Worth Center
Thu 05:40:58 PM 35.3353 -96.3650 272° West 438 504 43,000  Level Fort Worth Center
Thu 05:41:58 PM 35.3386 -96.5433 271° West 438 504 43,000  Level Fort Worth Center
Thu 05:42:58 PM 35.3436 -96.6933 272° West 438 504 43,000  Level Fort Worth Center
Thu 05:43:58 PM 35.3467 -96.8433 271° West 438 504 43,000  Level Fort Worth Center
Thu 05:44:58 PM 35.3472 -96.9886 270° West 438 504 43,000  Level Fort Worth Center
Thu 05:45:58 PM 35.3497 -97.1286 271° West 432 497 43,000  Level Fort Worth Center
Thu 05:46:59 PM 35.3603 -97.2964 274° West 438 504 43,000  Level Fort Worth Center
Thu 05:47:58 PM 35.3583 -97.4442 269° West 438 504 43,000  Level Fort Worth Center
Thu 05:48:58 PM 35.3581 -97.5994 270° West 446 513 43,000  Level Fort Worth Center
Thu 05:49:58 PM 35.3619 -97.7419 272° West 446 513 43,000  Level Fort Worth Center
Thu 05:50:58 PM 35.3636 -97.8869 271° West 435 501 43,000  Level Fort Worth Center
Thu 05:51:58 PM 35.3650 -98.0322 271° West 435 501 43,000  Level Fort Worth Center
Thu 05:52:58 PM 35.3664 -98.1797 271° West 435 501 43,000  Level Fort Worth Center
Thu 05:53:58 PM 35.3694 -98.3250 272° West 435 501 43,000  Level Fort Worth Center
Thu 05:54:58 PM 35.3683 -98.4725 270° West 440 506 43,000  Level Fort Worth Center
Thu 05:55:58 PM 35.3669 -98.6125 269° West 435 501 43,000  Level Fort Worth Center
Thu 05:56:58 PM 35.3697 -98.7578 271° West 435 501 43,000  Level Fort Worth Center
Thu 05:57:58 PM 35.3703 -98.8900 270° West 435 501 43,000  Level Fort Worth Center
Thu 05:58:59 PM 35.3706 -99.0403 270° West 435 501 43,000  Level Fort Worth Center
Thu 05:59:58 PM 35.3706 -99.1856 270° West 435 501 43,000  Level Fort Worth Center
Thu 06:00:58 PM 35.3706 -99.3356 270° West 441 507 43,000  Level Fort Worth Center
Thu 06:01:30 PM 35.3722 -99.4167 271° West 434 499 43,000  Level Albuquerque Center
Thu 06:02:32 PM 35.3711 -99.5639 270° West 431 496 43,000  Level Albuquerque Center
Thu 06:03:34 PM 35.3711 -99.7106 270° West 428 493 43,000  Level Albuquerque Center
Thu 06:04:36 PM 35.3717 -99.8592 270° West 431 496 43,000  Level Albuquerque Center
Thu 06:05:38 PM 35.3706 -100.0069 270° West 432 497 43,000  Level Albuquerque Center
Thu 06:06:40 PM 35.3672 -100.1825 269° West 430 495 43,000  Level Albuquerque Center
Thu 06:07:42 PM 35.3694 -100.3342 271° West 435 501 43,000  Level Albuquerque Center
Thu 06:08:44 PM 35.3661 -100.4811 268° West 435 501 43,000  Level Albuquerque Center
Thu 06:09:46 PM 35.3653 -100.6289 270° West 433 498 43,000  Level Albuquerque Center
Thu 06:10:48 PM 35.3639 -100.7758 269° West 435 501 43,000  Level Albuquerque Center
Thu 06:11:49 PM 35.3625 -100.9250 269° West 438 504 43,000  Level Albuquerque Center
Thu 06:12:51 PM 35.3594 -101.1006 269° West 434 499 43,000  Level Albuquerque Center
Thu 06:13:53 PM 35.3575 -101.2481 269° West 434 499 43,000  Level Albuquerque Center
Thu 06:14:55 PM 35.3550 -101.4033 269° West 437 503 43,000  Level Albuquerque Center
Thu 06:15:57 PM 35.3553 -101.5511 270° West 434 499 43,000  Level Albuquerque Center
Thu 06:16:59 PM 35.3506 -101.6975 268° West 431 496 43,000  Level Albuquerque Center
Thu 06:18:01 PM 35.3475 -101.8444 269° West 429 494 43,000  Level Albuquerque Center
Thu 06:19:03 PM 35.3394 -101.9992 266° West 431 496 43,000  Level Albuquerque Center
Thu 06:20:04 PM 35.3364 -102.1447 269° West 431 496 43,000  Level Albuquerque Center
Thu 06:21:06 PM 35.3333 -102.2914 269° West 433 498 43,000  Level Albuquerque Center
Thu 06:22:08 PM 35.3289 -102.4386 268° West 434 499 43,000  Level Albuquerque Center
Thu 06:23:10 PM 35.3242 -102.6136 268° West 432 497 43,000  Level Albuquerque Center
Thu 06:24:12 PM 35.3217 -102.7567 269° West 430 495 43,000  Level Albuquerque Center
Thu 06:25:14 PM 35.3175 -102.9036 268° West 429 494 43,000  Level Albuquerque Center
Thu 06:26:16 PM 35.3131 -103.0514 268° West 430 495 43,000  Level Albuquerque Center
Thu 06:27:18 PM 35.3075 -103.2003 267° West 434 499 43,000  Level Albuquerque Center
Thu 06:28:20 PM 35.3028 -103.3478 268° West 432 497 43,000  Level Albuquerque Center
Thu 06:29:22 PM 35.2975 -103.5208 268° West 433 498 43,000  Level Albuquerque Center
Thu 06:30:24 PM 35.2919 -103.6681 267° West 431 496 43,000  Level Albuquerque Center
Thu 06:31:26 PM 35.2864 -103.8167 267° West 434 499 43,000  Level Albuquerque Center
Thu 06:32:28 PM 35.2806 -103.9611 267° West 434 499 43,000  Level Albuquerque Center
Thu 06:33:30 PM 35.2753 -104.1064 267° West 431 496 43,000  Level Albuquerque Center
Thu 06:34:32 PM 35.2686 -104.2514 267° West 428 493 43,000  Level Albuquerque Center
Thu 06:35:34 PM 35.2622 -104.4250 267° West 427 491 43,000  Level Albuquerque Center
Thu 06:36:36 PM 35.2556 -104.5692 267° West 425 489 43,000  Level Albuquerque Center
Thu 06:37:37 PM 35.2475 -104.7100 266° West 428 493 43,000  Level Albuquerque Center
Thu 06:38:39 PM 35.2408 -104.8575 267° West 430 495 43,000  Level Albuquerque Center
Thu 06:39:41 PM 35.2342 -105.0044 267° West 431 496 43,000  Level Albuquerque Center
Thu 06:40:43 PM 35.2269 -105.1528 267° West 432 497 43,000  Level Albuquerque Center
Thu 06:41:45 PM 35.2181 -105.3278 266° West 438 504 43,000  Level Albuquerque Center
Thu 06:42:46 PM 35.2103 -105.4772 266° West 437 503 43,000  Level Albuquerque Center
Thu 06:43:48 PM 35.2028 -105.6278 267° West 439 505 43,000  Level Albuquerque Center
Thu 06:44:50 PM 35.1947 -105.7769 266° West 438 504 43,000  Level Albuquerque Center
Thu 06:45:51 PM 35.1856 -105.9261 266° West 437 503 43,000  Level Albuquerque Center
Thu 06:46:53 PM 35.1781 -106.0731 266° West 431 496 43,000  Level Albuquerque Center
Thu 06:47:55 PM 35.1694 -106.2208 266° West 432 497 43,000  Level Albuquerque Center
Thu 06:48:57 PM 35.1622 -106.3667 267° West 430 495 43,000  Level Albuquerque Center
Thu 06:49:58 PM 35.1536 -106.5108 266° West 429 494 43,000  Level Albuquerque Center
Thu 06:51:00 PM 35.1456 -106.6775 267° West 423 487 43,000  Level Albuquerque Center
Thu 06:52:02 PM 35.1361 -106.8142 265° West 421 484 43,000  Level Albuquerque Center
Thu 06:53:03 PM 35.1144 -106.9786 261° West 434 499 43,000  Level Albuquerque Center
Thu 06:54:05 PM 35.1000 -107.1150 263° West 425 489 43,000  Level Albuquerque Center
Thu 06:55:07 PM 35.0833 -107.2472 261° West 432 497 43,000  Level Albuquerque Center
Thu 06:56:09 PM 35.0675 -107.3894 262° West 428 493 43,000  Level Albuquerque Center
Thu 06:57:10 PM 35.0467 -107.5631 262° West 431 496 43,000  Level Albuquerque Center
Thu 06:58:12 PM 35.0297 -107.7056 262° West 428 493 43,000  Level Albuquerque Center
Thu 06:59:14 PM 35.0136 -107.8500 262° West 426 490 43,000  Level Albuquerque Center
Thu 07:00:15 PM 34.9956 -108.0075 262° West 421 484 43,000  Level Albuquerque Center
Thu 07:01:17 PM 34.9792 -108.1439 262° West 423 487 43,000 -484 Level Albuquerque Center
Thu 07:02:19 PM 34.9625 -108.2822 262° West 428 493 42,000 -1,306 Descending Albuquerque Center
Thu 07:03:21 PM 34.9433 -108.4408 262° West 426 490 40,300 -1,512 Descending Albuquerque Center
Thu 07:04:22 PM 34.9264 -108.5783 261° West 426 490 38,900 -1,122 Descending Albuquerque Center
Thu 07:05:24 PM 34.9050 -108.7456 261° West 440 506 38,000 -581 Descending Albuquerque Center
Thu 07:06:26 PM 34.8878 -108.8903 262° West 447 514 37,700 -634 Descending Albuquerque Center
Thu 07:07:27 PM 34.8694 -109.0331 261° West 447 514 36,700 -829 Descending Albuquerque Center
Thu 07:08:29 PM 34.8481 -109.2036 261° West 452 520 36,000 -339 Descending Albuquerque Center
Thu 07:09:31 PM 34.8286 -109.3500 261° West 456 525 36,000  Level Albuquerque Center
Thu 07:10:33 PM 34.8047 -109.5178 260° West 453 521 36,000  Level Albuquerque Center
Thu 07:11:34 PM 34.7803 -109.6619 258° West 452 520 36,000  Level Albuquerque Center
Thu 07:12:36 PM 34.7222 -109.8178 246° West 453 521 36,000  Level Albuquerque Center
Thu 07:13:38 PM 34.6722 -109.9519 246° West 454 522 36,000 -49 Level Albuquerque Center
Thu 07:14:39 PM 34.6225 -110.0853 246° West 453 521 35,900 -1,220 Descending Albuquerque Center
Thu 07:15:41 PM 34.5667 -110.2483 247° West 464 534 33,500 -2,226 Descending Albuquerque Center
Thu 07:16:43 PM 34.5128 -110.3786 243° Southwest 456 525 31,300 -2,177 Descending Albuquerque Center
Thu 07:17:45 PM 34.4614 -110.5194 246° West 438 504 29,000 -2,049 Descending Albuquerque Center
Thu 07:18:46 PM 34.4161 -110.6436 246° West 399 459 27,100 -1,854 Descending Albuquerque Center
Thu 07:19:48 PM 34.3703 -110.7531 243° Southwest 382 440 25,200 -1,790 Descending Albuquerque Center
Thu 07:20:50 PM 34.3125 -110.8550 236° Southwest 371 427 23,400 -1,561 Descending Albuquerque Center
Thu 07:21:51 PM 34.2422 -110.9400 225° Southwest 360 414 22,000 -1,854 Descending Albuquerque Center
Thu 07:22:53 PM 34.1639 -111.0433 228° Southwest 351 404 19,600 -2,081 Descending Albuquerque Center
Thu 07:23:55 PM 34.0989 -111.1253 226° Southwest 342 394 17,700 -1,597 Descending Albuquerque Center
Thu 07:24:57 PM 34.0364 -111.2064 227° Southwest 333 383 16,300 -1,463 Descending Albuquerque Center
Thu 07:25:58 PM 33.9756 -111.2839 227° Southwest 324 373 14,700 -1,561 Descending Albuquerque Center
Thu 07:27:00 PM 33.9167 -111.3600 227° Southwest 313 360 13,100 -1,452 Descending Albuquerque Center
Thu 07:28:02 PM 33.8578 -111.4269 223° Southwest 289 333 11,700 -1,220 Descending Albuquerque Center
Thu 07:29:03 PM 33.7931 -111.4803 214° Southwest 281 323 10,600 -878 Descending Albuquerque Center
Thu 07:30:05 PM 33.7300 -111.5353 216° Southwest 278 320 9,900 -726 Descending Albuquerque Center
Thu 07:31:07 PM 33.6686 -111.5875 215° Southwest 268 308 9,100 -919 Descending Albuquerque Center
Thu 07:32:09 PM 33.6078 -111.6394 215° Southwest 225 259 8,000 -1,065 Descending Albuquerque Center
Thu 07:33:11 PM 33.5553 -111.6825 214° Southwest 226 260 6,900 -1,122 Descending Albuquerque Center
Thu 07:34:12 PM 33.5053 -111.7247 215° Southwest 220 253 5,700 -1,024 Descending Albuquerque Center
Thu 07:35:14 PM 33.4633 -111.7794 227° Southwest 220 253 4,800 -878 Descending Albuquerque Center
Thu 07:36:15 PM 33.4331 -111.8289 234° Southwest 187 215 3,900 -878 Descending Albuquerque Center
Thu 07:37:17 PM 33.4286 -111.8806 264° West 164 189 3,000 -878 Descending Albuquerque Center
Thu 07:38:18 PM 33.4292 -111.9378 271° West 171 197 2,100 -780 Descending Albuquerque Center
Thu 07:39:20 PM 33.4294 -111.9853 270° West 143 165 1,400 -488 Descending Albuquerque Center
Thu 07:40:21 PM 33.4306 -111.8556 89° East 97 112 1,100 -295 Descending Albuquerque Center

Login

Don't have an account? Register now (free) for customized features, flight alerts, and more!